sensor_id;sensor_type;location;lat;lon;timestamp;pressure;altitude;pressure_sealevel;temperature
22322;BMP180;11328;53.928;18.522;2023-04-03T00:00:57;101374.00;;;3.90
22322;BMP180;11328;53.928;18.522;2023-04-03T00:03:24;101377.00;;;3.90
22322;BMP180;11328;53.928;18.522;2023-04-03T00:05:51;101361.00;;;4.00
22322;BMP180;11328;53.928;18.522;2023-04-03T00:08:17;101369.00;;;3.80
22322;BMP180;11328;53.928;18.522;2023-04-03T00:10:44;101371.00;;;3.90
22322;BMP180;11328;53.928;18.522;2023-04-03T00:13:11;101372.00;;;3.90
22322;BMP180;11328;53.928;18.522;2023-04-03T00:15:39;101370.00;;;4.00
22322;BMP180;11328;53.928;18.522;2023-04-03T00:18:07;101380.00;;;4.00
22322;BMP180;11328;53.928;18.522;2023-04-03T00:20:34;101388.00;;;4.00
22322;BMP180;11328;53.928;18.522;2023-04-03T00:23:02;101379.00;;;4.10
22322;BMP180;11328;53.928;18.522;2023-04-03T00:25:29;101381.00;;;4.20
22322;BMP180;11328;53.928;18.522;2023-04-03T00:27:56;101377.00;;;4.00
22322;BMP180;11328;53.928;18.522;2023-04-03T00:30:23;101343.00;;;3.80
22322;BMP180;11328;53.928;18.522;2023-04-03T00:32:53;101376.00;;;4.00
22322;BMP180;11328;53.928;18.522;2023-04-03T00:35:22;101378.00;;;3.90
22322;BMP180;11328;53.928;18.522;2023-04-03T00:37:53;101380.00;;;3.90
22322;BMP180;11328;53.928;18.522;2023-04-03T00:40:24;101388.00;;;3.80
22322;BMP180;11328;53.928;18.522;2023-04-03T00:42:57;101376.00;;;3.80
22322;BMP180;11328;53.928;18.522;2023-04-03T00:45:35;101371.00;;;3.80
22322;BMP180;11328;53.928;18.522;2023-04-03T00:48:06;101377.00;;;3.80
22322;BMP180;11328;53.928;18.522;2023-04-03T00:50:40;101389.00;;;4.00
22322;BMP180;11328;53.928;18.522;2023-04-03T00:53:19;101341.00;;;4.00
22322;BMP180;11328;53.928;18.522;2023-04-03T00:55:50;101373.00;;;3.80
22322;BMP180;11328;53.928;18.522;2023-04-03T00:58:20;101375.00;;;3.70
22322;BMP180;11328;53.928;18.522;2023-04-03T01:00:55;101374.00;;;3.80
22322;BMP180;11328;53.928;18.522;2023-04-03T01:03:25;101375.00;;;3.70
22322;BMP180;11328;53.928;18.522;2023-04-03T01:05:52;101369.00;;;3.70
22322;BMP180;11328;53.928;18.522;2023-04-03T01:08:19;101376.00;;;3.70
22322;BMP180;11328;53.928;18.522;2023-04-03T01:10:46;101364.00;;;3.60
22322;BMP180;11328;53.928;18.522;2023-04-03T01:13:31;101366.00;;;3.60
22322;BMP180;11328;53.928;18.522;2023-04-03T01:16:04;101363.00;;;3.70
22322;BMP180;11328;53.928;18.522;2023-04-03T01:18:33;101370.00;;;3.60
22322;BMP180;11328;53.928;18.522;2023-04-03T01:26:37;101371.00;;;3.60
22322;BMP180;11328;53.928;18.522;2023-04-03T01:29:04;101380.00;;;3.50
22322;BMP180;11328;53.928;18.522;2023-04-03T01:34:16;101385.00;;;3.40
22322;BMP180;11328;53.928;18.522;2023-04-03T01:36:43;101383.00;;;3.50
22322;BMP180;11328;53.928;18.522;2023-04-03T01:39:09;101382.00;;;3.50
22322;BMP180;11328;53.928;18.522;2023-04-03T01:41:36;101386.00;;;3.50
22322;BMP180;11328;53.928;18.522;2023-04-03T01:44:04;101375.00;;;3.30
22322;BMP180;11328;53.928;18.522;2023-04-03T01:46:31;101383.00;;;3.20
22322;BMP180;11328;53.928;18.522;2023-04-03T01:48:58;101382.00;;;3.30
22322;BMP180;11328;53.928;18.522;2023-04-03T01:51:25;101382.00;;;3.30
22322;BMP180;11328;53.928;18.522;2023-04-03T01:53:52;101391.00;;;3.30
22322;BMP180;11328;53.928;18.522;2023-04-03T01:56:19;101391.00;;;3.30
22322;BMP180;11328;53.928;18.522;2023-04-03T01:58:47;101396.00;;;3.40
22322;BMP180;11328;53.928;18.522;2023-04-03T02:01:14;101394.00;;;3.30
22322;BMP180;11328;53.928;18.522;2023-04-03T02:03:41;101370.00;;;3.20
22322;BMP180;11328;53.928;18.522;2023-04-03T02:06:08;101350.00;;;3.20
22322;BMP180;11328;53.928;18.522;2023-04-03T02:08:38;101388.00;;;3.10
22322;BMP180;11328;53.928;18.522;2023-04-03T02:11:05;101386.00;;;3.00
22322;BMP180;11328;53.928;18.522;2023-04-03T02:13:32;101391.00;;;3.10
22322;BMP180;11328;53.928;18.522;2023-04-03T02:15:59;101398.00;;;3.00
22322;BMP180;11328;53.928;18.522;2023-04-03T02:18:25;101391.00;;;3.10
22322;BMP180;11328;53.928;18.522;2023-04-03T02:20:52;101391.00;;;3.10
22322;BMP180;11328;53.928;18.522;2023-04-03T02:23:19;101398.00;;;3.00
22322;BMP180;11328;53.928;18.522;2023-04-03T02:25:46;101396.00;;;3.00
22322;BMP180;11328;53.928;18.522;2023-04-03T02:28:13;101394.00;;;3.10
22322;BMP180;11328;53.928;18.522;2023-04-03T02:30:40;101396.00;;;3.10
22322;BMP180;11328;53.928;18.522;2023-04-03T02:33:07;101404.00;;;3.10
22322;BMP180;11328;53.928;18.522;2023-04-03T02:35:34;101410.00;;;3.10
22322;BMP180;11328;53.928;18.522;2023-04-03T02:38:01;101412.00;;;3.10
22322;BMP180;11328;53.928;18.522;2023-04-03T02:40:28;101407.00;;;3.10
22322;BMP180;11328;53.928;18.522;2023-04-03T02:42:55;101403.00;;;3.10
22322;BMP180;11328;53.928;18.522;2023-04-03T02:45:21;101404.00;;;3.10
22322;BMP180;11328;53.928;18.522;2023-04-03T02:47:48;101406.00;;;3.00
22322;BMP180;11328;53.928;18.522;2023-04-03T02:50:15;101405.00;;;3.10
22322;BMP180;11328;53.928;18.522;2023-04-03T02:52:42;101405.00;;;3.00
22322;BMP180;11328;53.928;18.522;2023-04-03T02:55:14;101407.00;;;3.00
22322;BMP180;11328;53.928;18.522;2023-04-03T02:57:42;101398.00;;;2.90
22322;BMP180;11328;53.928;18.522;2023-04-03T03:00:09;101413.00;;;2.90
22322;BMP180;11328;53.928;18.522;2023-04-03T03:02:36;101411.00;;;2.70
22322;BMP180;11328;53.928;18.522;2023-04-03T03:05:04;101412.00;;;2.70
22322;BMP180;11328;53.928;18.522;2023-04-03T03:07:34;101411.00;;;2.80
22322;BMP180;11328;53.928;18.522;2023-04-03T03:10:01;101407.00;;;2.80
22322;BMP180;11328;53.928;18.522;2023-04-03T03:12:28;101410.00;;;2.70
22322;BMP180;11328;53.928;18.522;2023-04-03T03:14:57;101418.00;;;2.70
22322;BMP180;11328;53.928;18.522;2023-04-03T03:17:24;101410.00;;;2.60
22322;BMP180;11328;53.928;18.522;2023-04-03T03:19:51;101408.00;;;2.60
22322;BMP180;11328;53.928;18.522;2023-04-03T03:22:19;101426.00;;;2.70
22322;BMP180;11328;53.928;18.522;2023-04-03T03:24:46;101413.00;;;2.60
22322;BMP180;11328;53.928;18.522;2023-04-03T03:27:13;101417.00;;;2.60
22322;BMP180;11328;53.928;18.522;2023-04-03T03:29:40;101419.00;;;2.60
22322;BMP180;11328;53.928;18.522;2023-04-03T03:32:07;101413.00;;;2.60
22322;BMP180;11328;53.928;18.522;2023-04-03T03:34:34;101424.00;;;2.70
22322;BMP180;11328;53.928;18.522;2023-04-03T03:37:01;101423.00;;;2.70
22322;BMP180;11328;53.928;18.522;2023-04-03T03:39:28;101415.00;;;2.80
22322;BMP180;11328;53.928;18.522;2023-04-03T03:41:55;101413.00;;;2.60
22322;BMP180;11328;53.928;18.522;2023-04-03T03:44:22;101421.00;;;2.60
22322;BMP180;11328;53.928;18.522;2023-04-03T03:46:49;101420.00;;;2.50
22322;BMP180;11328;53.928;18.522;2023-04-03T03:49:16;101420.00;;;2.50
22322;BMP180;11328;53.928;18.522;2023-04-03T03:51:43;101421.00;;;2.50
22322;BMP180;11328;53.928;18.522;2023-04-03T03:54:10;101420.00;;;2.50
22322;BMP180;11328;53.928;18.522;2023-04-03T03:56:37;101424.00;;;2.60
22322;BMP180;11328;53.928;18.522;2023-04-03T03:59:04;101414.00;;;2.60
22322;BMP180;11328;53.928;18.522;2023-04-03T04:01:32;101422.00;;;2.50
22322;BMP180;11328;53.928;18.522;2023-04-03T04:03:59;101420.00;;;2.30
22322;BMP180;11328;53.928;18.522;2023-04-03T04:06:26;101429.00;;;2.40
22322;BMP180;11328;53.928;18.522;2023-04-03T04:08:53;101436.00;;;2.50
22322;BMP180;11328;53.928;18.522;2023-04-03T04:11:20;101434.00;;;2.40
22322;BMP180;11328;53.928;18.522;2023-04-03T04:13:48;101436.00;;;2.40
22322;BMP180;11328;53.928;18.522;2023-04-03T04:16:15;101435.00;;;2.50
22322;BMP180;11328;53.928;18.522;2023-04-03T04:18:42;101450.00;;;2.60
22322;BMP180;11328;53.928;18.522;2023-04-03T04:21:09;101446.00;;;2.60
22322;BMP180;11328;53.928;18.522;2023-04-03T04:23:36;101445.00;;;2.60
22322;BMP180;11328;53.928;18.522;2023-04-03T04:26:03;101449.00;;;2.60
22322;BMP180;11328;53.928;18.522;2023-04-03T04:28:29;101443.00;;;2.50
22322;BMP180;11328;53.928;18.522;2023-04-03T04:30:56;101437.00;;;2.60
22322;BMP180;11328;53.928;18.522;2023-04-03T04:33:23;101450.00;;;2.80
22322;BMP180;11328;53.928;18.522;2023-04-03T04:35:50;101444.00;;;2.80
22322;BMP180;11328;53.928;18.522;2023-04-03T04:38:18;101432.00;;;2.70
22322;BMP180;11328;53.928;18.522;2023-04-03T04:40:47;101438.00;;;2.80
22322;BMP180;11328;53.928;18.522;2023-04-03T04:43:14;101441.00;;;2.80
22322;BMP180;11328;53.928;18.522;2023-04-03T04:45:42;101439.00;;;2.80
22322;BMP180;11328;53.928;18.522;2023-04-03T04:48:09;101437.00;;;2.90
22322;BMP180;11328;53.928;18.522;2023-04-03T04:50:36;101456.00;;;2.90
22322;BMP180;11328;53.928;18.522;2023-04-03T04:53:03;101432.00;;;2.90
22322;BMP180;11328;53.928;18.522;2023-04-03T04:55:30;101438.00;;;3.00
22322;BMP180;11328;53.928;18.522;2023-04-03T04:57:57;101439.00;;;3.10
22322;BMP180;11328;53.928;18.522;2023-04-03T05:00:24;101453.00;;;3.10
22322;BMP180;11328;53.928;18.522;2023-04-03T05:02:51;101451.00;;;3.20
22322;BMP180;11328;53.928;18.522;2023-04-03T05:05:18;101454.00;;;3.20
22322;BMP180;11328;53.928;18.522;2023-04-03T05:07:45;101455.00;;;3.20
22322;BMP180;11328;53.928;18.522;2023-04-03T05:10:12;101451.00;;;3.20
22322;BMP180;11328;53.928;18.522;2023-04-03T05:12:39;101453.00;;;3.20
22322;BMP180;11328;53.928;18.522;2023-04-03T05:15:07;101454.00;;;3.30
22322;BMP180;11328;53.928;18.522;2023-04-03T05:17:34;101458.00;;;3.40
22322;BMP180;11328;53.928;18.522;2023-04-03T05:20:01;101464.00;;;3.30
22322;BMP180;11328;53.928;18.522;2023-04-03T05:22:29;101466.00;;;3.40
22322;BMP180;11328;53.928;18.522;2023-04-03T05:24:56;101465.00;;;3.40
22322;BMP180;11328;53.928;18.522;2023-04-03T05:27:23;101461.00;;;3.40
22322;BMP180;11328;53.928;18.522;2023-04-03T05:29:55;101470.00;;;3.70
22322;BMP180;11328;53.928;18.522;2023-04-03T05:32:23;101468.00;;;3.90
22322;BMP180;11328;53.928;18.522;2023-04-03T05:34:51;101471.00;;;3.70
22322;BMP180;11328;53.928;18.522;2023-04-03T05:37:19;101475.00;;;4.00
22322;BMP180;11328;53.928;18.522;2023-04-03T05:39:47;101473.00;;;4.10
22322;BMP180;11328;53.928;18.522;2023-04-03T05:42:13;101489.00;;;4.20
22322;BMP180;11328;53.928;18.522;2023-04-03T05:44:41;101480.00;;;4.30
22322;BMP180;11328;53.928;18.522;2023-04-03T05:47:08;101445.00;;;4.60
22322;BMP180;11328;53.928;18.522;2023-04-03T05:49:35;101494.00;;;4.70
22322;BMP180;11328;53.928;18.522;2023-04-03T05:52:02;101478.00;;;4.70
22322;BMP180;11328;53.928;18.522;2023-04-03T05:54:30;101498.00;;;4.70
22322;BMP180;11328;53.928;18.522;2023-04-03T05:56:57;101500.00;;;4.90
22322;BMP180;11328;53.928;18.522;2023-04-03T05:59:24;101495.00;;;4.90
22322;BMP180;11328;53.928;18.522;2023-04-03T06:01:51;101502.00;;;5.00
22322;BMP180;11328;53.928;18.522;2023-04-03T06:04:18;101508.00;;;5.00
22322;BMP180;11328;53.928;18.522;2023-04-03T06:06:54;101503.00;;;4.90
22322;BMP180;11328;53.928;18.522;2023-04-03T06:09:25;101502.00;;;4.80
22322;BMP180;11328;53.928;18.522;2023-04-03T06:11:53;101507.00;;;4.60
22322;BMP180;11328;53.928;18.522;2023-04-03T06:14:20;101512.00;;;4.50
22322;BMP180;11328;53.928;18.522;2023-04-03T06:16:47;101510.00;;;4.40
22322;BMP180;11328;53.928;18.522;2023-04-03T06:19:15;101516.00;;;4.40
22322;BMP180;11328;53.928;18.522;2023-04-03T06:21:42;101508.00;;;4.40
22322;BMP180;11328;53.928;18.522;2023-04-03T06:24:12;101507.00;;;4.20
22322;BMP180;11328;53.928;18.522;2023-04-03T06:26:40;101524.00;;;4.30
22322;BMP180;11328;53.928;18.522;2023-04-03T06:29:07;101524.00;;;4.40
22322;BMP180;11328;53.928;18.522;2023-04-03T06:31:35;101529.00;;;4.40
22322;BMP180;11328;53.928;18.522;2023-04-03T06:34:04;101508.00;;;4.50
22322;BMP180;11328;53.928;18.522;2023-04-03T06:36:35;101503.00;;;5.00
22322;BMP180;11328;53.928;18.522;2023-04-03T06:39:03;101511.00;;;5.30
22322;BMP180;11328;53.928;18.522;2023-04-03T06:41:31;101521.00;;;5.60
22322;BMP180;11328;53.928;18.522;2023-04-03T06:43:58;101527.00;;;6.00
22322;BMP180;11328;53.928;18.522;2023-04-03T06:46:26;101515.00;;;6.10
22322;BMP180;11328;53.928;18.522;2023-04-03T06:48:54;101515.00;;;6.10
22322;BMP180;11328;53.928;18.522;2023-04-03T06:51:28;101529.00;;;6.20
22322;BMP180;11328;53.928;18.522;2023-04-03T06:53:58;101523.00;;;6.20
22322;BMP180;11328;53.928;18.522;2023-04-03T06:56:26;101529.00;;;6.50
22322;BMP180;11328;53.928;18.522;2023-04-03T06:58:54;101522.00;;;6.60
22322;BMP180;11328;53.928;18.522;2023-04-03T07:01:25;101534.00;;;6.90
22322;BMP180;11328;53.928;18.522;2023-04-03T07:03:53;101526.00;;;6.90
22322;BMP180;11328;53.928;18.522;2023-04-03T07:06:20;101542.00;;;6.70
22322;BMP180;11328;53.928;18.522;2023-04-03T07:08:48;101526.00;;;6.60
22322;BMP180;11328;53.928;18.522;2023-04-03T07:11:16;101533.00;;;6.90
22322;BMP180;11328;53.928;18.522;2023-04-03T07:13:44;101531.00;;;7.00
22322;BMP180;11328;53.928;18.522;2023-04-03T07:16:11;101518.00;;;7.10
22322;BMP180;11328;53.928;18.522;2023-04-03T07:18:38;101533.00;;;6.80
22322;BMP180;11328;53.928;18.522;2023-04-03T07:21:05;101543.00;;;6.70
22322;BMP180;11328;53.928;18.522;2023-04-03T07:23:33;101546.00;;;6.90
22322;BMP180;11328;53.928;18.522;2023-04-03T07:26:00;101546.00;;;7.00
22322;BMP180;11328;53.928;18.522;2023-04-03T07:28:27;101546.00;;;7.20
22322;BMP180;11328;53.928;18.522;2023-04-03T07:31:06;101547.00;;;7.70
22322;BMP180;11328;53.928;18.522;2023-04-03T07:33:37;101552.00;;;7.80
22322;BMP180;11328;53.928;18.522;2023-04-03T07:36:05;101557.00;;;7.90
22322;BMP180;11328;53.928;18.522;2023-04-03T07:38:37;101564.00;;;7.90
22322;BMP180;11328;53.928;18.522;2023-04-03T07:41:04;101560.00;;;7.40
22322;BMP180;11328;53.928;18.522;2023-04-03T07:43:32;101578.00;;;6.60
22322;BMP180;11328;53.928;18.522;2023-04-03T07:46:01;101573.00;;;6.30
22322;BMP180;11328;53.928;18.522;2023-04-03T07:48:29;101573.00;;;6.10
22322;BMP180;11328;53.928;18.522;2023-04-03T07:51:00;101590.00;;;5.90
22322;BMP180;11328;53.928;18.522;2023-04-03T07:53:28;101586.00;;;5.80
22322;BMP180;11328;53.928;18.522;2023-04-03T07:55:58;101573.00;;;5.60
22322;BMP180;11328;53.928;18.522;2023-04-03T07:58:25;101581.00;;;5.70
22322;BMP180;11328;53.928;18.522;2023-04-03T08:00:52;101575.00;;;5.90
22322;BMP180;11328;53.928;18.522;2023-04-03T08:03:19;101566.00;;;6.10
22322;BMP180;11328;53.928;18.522;2023-04-03T08:05:48;101584.00;;;6.70
22322;BMP180;11328;53.928;18.522;2023-04-03T08:08:21;101588.00;;;6.60
22322;BMP180;11328;53.928;18.522;2023-04-03T08:10:50;101600.00;;;6.40
22322;BMP180;11328;53.928;18.522;2023-04-03T08:13:19;101604.00;;;6.50
22322;BMP180;11328;53.928;18.522;2023-04-03T08:15:46;101601.00;;;6.20
22322;BMP180;11328;53.928;18.522;2023-04-03T08:18:15;101586.00;;;5.80
22322;BMP180;11328;53.928;18.522;2023-04-03T08:20:42;101598.00;;;5.70
22322;BMP180;11328;53.928;18.522;2023-04-03T08:23:09;101598.00;;;5.70
22322;BMP180;11328;53.928;18.522;2023-04-03T08:25:41;101594.00;;;5.60
22322;BMP180;11328;53.928;18.522;2023-04-03T08:28:10;101604.00;;;5.60
22322;BMP180;11328;53.928;18.522;2023-04-03T08:30:42;101600.00;;;5.60
22322;BMP180;11328;53.928;18.522;2023-04-03T08:33:09;101605.00;;;5.90
22322;BMP180;11328;53.928;18.522;2023-04-03T08:35:41;101597.00;;;5.90
22322;BMP180;11328;53.928;18.522;2023-04-03T08:38:09;101599.00;;;6.00
22322;BMP180;11328;53.928;18.522;2023-04-03T08:40:37;101608.00;;;5.90
22322;BMP180;11328;53.928;18.522;2023-04-03T08:43:40;101597.00;;;5.60
22322;BMP180;11328;53.928;18.522;2023-04-03T08:46:14;101609.00;;;5.50
22322;BMP180;11328;53.928;18.522;2023-04-03T08:48:43;101603.00;;;5.50
22322;BMP180;11328;53.928;18.522;2023-04-03T08:51:22;101586.00;;;5.30
22322;BMP180;11328;53.928;18.522;2023-04-03T08:54:04;101601.00;;;5.50
22322;BMP180;11328;53.928;18.522;2023-04-03T08:56:35;101614.00;;;5.50
22322;BMP180;11328;53.928;18.522;2023-04-03T08:59:13;101577.00;;;5.60
22322;BMP180;11328;53.928;18.522;2023-04-03T09:01:43;101609.00;;;5.50
22322;BMP180;11328;53.928;18.522;2023-04-03T09:04:16;101619.00;;;5.80
22322;BMP180;11328;53.928;18.522;2023-04-03T09:06:50;101595.00;;;5.80
22322;BMP180;11328;53.928;18.522;2023-04-03T09:09:41;101590.00;;;6.40
22322;BMP180;11328;53.928;18.522;2023-04-03T09:12:27;101607.00;;;6.50
22322;BMP180;11328;53.928;18.522;2023-04-03T09:15:10;101608.00;;;6.40
22322;BMP180;11328;53.928;18.522;2023-04-03T09:18:08;101601.00;;;6.10
22322;BMP180;11328;53.928;18.522;2023-04-03T09:21:36;101603.00;;;6.10
22322;BMP180;11328;53.928;18.522;2023-04-03T09:24:00;101589.00;;;6.00
22322;BMP180;11328;53.928;18.522;2023-04-03T09:26:52;101609.00;;;6.00
22322;BMP180;11328;53.928;18.522;2023-04-03T09:29:23;101606.00;;;6.00
22322;BMP180;11328;53.928;18.522;2023-04-03T09:31:59;101595.00;;;6.10
22322;BMP180;11328;53.928;18.522;2023-04-03T09:34:36;101604.00;;;6.20
22322;BMP180;11328;53.928;18.522;2023-04-03T09:37:04;101607.00;;;6.20
22322;BMP180;11328;53.928;18.522;2023-04-03T09:39:51;101613.00;;;5.90
22322;BMP180;11328;53.928;18.522;2023-04-03T09:42:25;101624.00;;;5.90
22322;BMP180;11328;53.928;18.522;2023-04-03T09:45:24;101617.00;;;5.90
22322;BMP180;11328;53.928;18.522;2023-04-03T09:48:17;101621.00;;;6.10
22322;BMP180;11328;53.928;18.522;2023-04-03T09:53:43;101612.00;;;7.00
22322;BMP180;11328;53.928;18.522;2023-04-03T10:01:31;101629.00;;;6.60
22322;BMP180;11328;53.928;18.522;2023-04-03T10:04:19;101630.00;;;6.50
22322;BMP180;11328;53.928;18.522;2023-04-03T10:06:51;101600.00;;;6.70
22322;BMP180;11328;53.928;18.522;2023-04-03T10:09:31;101586.00;;;7.00
22322;BMP180;11328;53.928;18.522;2023-04-03T10:12:11;101616.00;;;6.80
22322;BMP180;11328;53.928;18.522;2023-04-03T10:15:00;101614.00;;;6.70
22322;BMP180;11328;53.928;18.522;2023-04-03T10:17:42;101615.00;;;6.60
22322;BMP180;11328;53.928;18.522;2023-04-03T10:20:37;101567.00;;;6.50
22322;BMP180;11328;53.928;18.522;2023-04-03T10:29:25;101606.00;;;6.60
22322;BMP180;11328;53.928;18.522;2023-04-03T10:32:29;101600.00;;;6.80
22322;BMP180;11328;53.928;18.522;2023-04-03T10:34:55;101597.00;;;7.00
22322;BMP180;11328;53.928;18.522;2023-04-03T10:40:57;101607.00;;;6.50
22322;BMP180;11328;53.928;18.522;2023-04-03T10:53:39;101606.00;;;7.20
22322;BMP180;11328;53.928;18.522;2023-04-03T10:56:52;101595.00;;;6.90
22322;BMP180;11328;53.928;18.522;2023-04-03T10:59:50;101596.00;;;6.80
22322;BMP180;11328;53.928;18.522;2023-04-03T11:02:33;101599.00;;;6.50
22322;BMP180;11328;53.928;18.522;2023-04-03T11:05:47;101607.00;;;6.60
22322;BMP180;11328;53.928;18.522;2023-04-03T11:11:14;101606.00;;;6.50
22322;BMP180;11328;53.928;18.522;2023-04-03T11:16:26;101603.00;;;6.80
22322;BMP180;11328;53.928;18.522;2023-04-03T11:21:37;101613.00;;;6.80
22322;BMP180;11328;53.928;18.522;2023-04-03T11:24:27;101607.00;;;6.60
22322;BMP180;11328;53.928;18.522;2023-04-03T11:26:56;101603.00;;;6.30
22322;BMP180;11328;53.928;18.522;2023-04-03T11:29:33;101588.00;;;6.20
22322;BMP180;11328;53.928;18.522;2023-04-03T11:32:40;101592.00;;;6.30
22322;BMP180;11328;53.928;18.522;2023-04-03T11:35:11;101601.00;;;6.10
22322;BMP180;11328;53.928;18.522;2023-04-03T11:37:48;101614.00;;;5.90
22322;BMP180;11328;53.928;18.522;2023-04-03T11:45:37;101604.00;;;6.20
22322;BMP180;11328;53.928;18.522;2023-04-03T11:51:00;101595.00;;;6.40
22322;BMP180;11328;53.928;18.522;2023-04-03T11:53:34;101600.00;;;6.50
22322;BMP180;11328;53.928;18.522;2023-04-03T11:58:33;101590.00;;;7.00
22322;BMP180;11328;53.928;18.522;2023-04-03T12:01:05;101603.00;;;6.70
22322;BMP180;11328;53.928;18.522;2023-04-03T12:03:57;101601.00;;;6.90
22322;BMP180;11328;53.928;18.522;2023-04-03T12:10:01;101587.00;;;6.60
22322;BMP180;11328;53.928;18.522;2023-04-03T12:12:35;101592.00;;;6.70
22322;BMP180;11328;53.928;18.522;2023-04-03T12:24:28;101570.00;;;6.20
22322;BMP180;11328;53.928;18.522;2023-04-03T12:27:24;101577.00;;;6.60
22322;BMP180;11328;53.928;18.522;2023-04-03T12:36:08;101578.00;;;6.20
22322;BMP180;11328;53.928;18.522;2023-04-03T12:41:58;101572.00;;;6.20
22322;BMP180;11328;53.928;18.522;2023-04-03T12:44:57;101570.00;;;6.20
22322;BMP180;11328;53.928;18.522;2023-04-03T12:47:35;101573.00;;;6.30
22322;BMP180;11328;53.928;18.522;2023-04-03T12:50:35;101568.00;;;6.60
22322;BMP180;11328;53.928;18.522;2023-04-03T12:53:20;101529.00;;;6.50
22322;BMP180;11328;53.928;18.522;2023-04-03T12:55:55;101573.00;;;6.40
22322;BMP180;11328;53.928;18.522;2023-04-03T12:58:28;101575.00;;;6.50
22322;BMP180;11328;53.928;18.522;2023-04-03T13:01:10;101577.00;;;6.70
22322;BMP180;11328;53.928;18.522;2023-04-03T13:03:42;101563.00;;;6.50
22322;BMP180;11328;53.928;18.522;2023-04-03T13:06:19;101569.00;;;6.40
22322;BMP180;11328;53.928;18.522;2023-04-03T13:08:59;101566.00;;;6.40
22322;BMP180;11328;53.928;18.522;2023-04-03T13:11:42;101553.00;;;6.20
22322;BMP180;11328;53.928;18.522;2023-04-03T13:14:22;101550.00;;;6.00
22322;BMP180;11328;53.928;18.522;2023-04-03T13:17:13;101551.00;;;6.20
22322;BMP180;11328;53.928;18.522;2023-04-03T13:19:44;101562.00;;;6.60
22322;BMP180;11328;53.928;18.522;2023-04-03T13:22:36;101562.00;;;6.70
22322;BMP180;11328;53.928;18.522;2023-04-03T13:25:09;101563.00;;;6.60
22322;BMP180;11328;53.928;18.522;2023-04-03T13:27:39;101548.00;;;6.70
22322;BMP180;11328;53.928;18.522;2023-04-03T13:30:30;101575.00;;;6.50
22322;BMP180;11328;53.928;18.522;2023-04-03T13:33:00;101554.00;;;6.40
22322;BMP180;11328;53.928;18.522;2023-04-03T13:35:39;101566.00;;;6.20
22322;BMP180;11328;53.928;18.522;2023-04-03T13:40:56;101554.00;;;6.20
22322;BMP180;11328;53.928;18.522;2023-04-03T13:43:42;101573.00;;;6.40
22322;BMP180;11328;53.928;18.522;2023-04-03T13:48:41;101559.00;;;6.40
22322;BMP180;11328;53.928;18.522;2023-04-03T13:53:52;101555.00;;;6.40
22322;BMP180;11328;53.928;18.522;2023-04-03T13:56:34;101560.00;;;6.10
22322;BMP180;11328;53.928;18.522;2023-04-03T13:59:31;101556.00;;;5.80
22322;BMP180;11328;53.928;18.522;2023-04-03T14:07:14;101542.00;;;6.40
22322;BMP180;11328;53.928;18.522;2023-04-03T14:09:42;101527.00;;;6.70
22322;BMP180;11328;53.928;18.522;2023-04-03T14:12:33;101533.00;;;6.60
22322;BMP180;11328;53.928;18.522;2023-04-03T14:15:05;101530.00;;;6.70
22322;BMP180;11328;53.928;18.522;2023-04-03T14:17:34;101533.00;;;6.60
22322;BMP180;11328;53.928;18.522;2023-04-03T14:20:02;101543.00;;;6.60
22322;BMP180;11328;53.928;18.522;2023-04-03T14:22:32;101565.00;;;6.20
22322;BMP180;11328;53.928;18.522;2023-04-03T14:25:01;101585.00;;;5.90
22322;BMP180;11328;53.928;18.522;2023-04-03T14:27:51;101590.00;;;5.30
22322;BMP180;11328;53.928;18.522;2023-04-03T14:30:35;101575.00;;;5.40
22322;BMP180;11328;53.928;18.522;2023-04-03T14:33:05;101570.00;;;5.50
22322;BMP180;11328;53.928;18.522;2023-04-03T14:35:32;101564.00;;;5.60
22322;BMP180;11328;53.928;18.522;2023-04-03T14:38:00;101521.00;;;5.60
22322;BMP180;11328;53.928;18.522;2023-04-03T14:40:27;101552.00;;;5.80
22322;BMP180;11328;53.928;18.522;2023-04-03T14:42:54;101551.00;;;6.00
22322;BMP180;11328;53.928;18.522;2023-04-03T14:45:23;101548.00;;;6.10
22322;BMP180;11328;53.928;18.522;2023-04-03T14:47:54;101547.00;;;6.30
22322;BMP180;11328;53.928;18.522;2023-04-03T14:50:26;101548.00;;;6.30
22322;BMP180;11328;53.928;18.522;2023-04-03T14:52:58;101539.00;;;6.30
22322;BMP180;11328;53.928;18.522;2023-04-03T14:55:25;101537.00;;;6.20
22322;BMP180;11328;53.928;18.522;2023-04-03T14:57:53;101531.00;;;6.00
22322;BMP180;11328;53.928;18.522;2023-04-03T15:00:22;101537.00;;;5.90
22322;BMP180;11328;53.928;18.522;2023-04-03T15:02:49;101521.00;;;5.80
22322;BMP180;11328;53.928;18.522;2023-04-03T15:05:17;101510.00;;;6.10
22322;BMP180;11328;53.928;18.522;2023-04-03T15:07:54;101540.00;;;5.90
22322;BMP180;11328;53.928;18.522;2023-04-03T15:10:28;101508.00;;;5.80
22322;BMP180;11328;53.928;18.522;2023-04-03T15:12:55;101552.00;;;5.50
22322;BMP180;11328;53.928;18.522;2023-04-03T15:15:24;101546.00;;;5.70
22322;BMP180;11328;53.928;18.522;2023-04-03T15:17:54;101557.00;;;5.70
22322;BMP180;11328;53.928;18.522;2023-04-03T15:20:25;101554.00;;;5.50
22322;BMP180;11328;53.928;18.522;2023-04-03T15:22:54;101548.00;;;5.60
22322;BMP180;11328;53.928;18.522;2023-04-03T15:25:23;101549.00;;;5.70
22322;BMP180;11328;53.928;18.522;2023-04-03T15:27:56;101555.00;;;5.70
22322;BMP180;11328;53.928;18.522;2023-04-03T15:30:24;101545.00;;;5.70
22322;BMP180;11328;53.928;18.522;2023-04-03T15:32:51;101543.00;;;5.70
22322;BMP180;11328;53.928;18.522;2023-04-03T15:35:19;101550.00;;;5.70
22322;BMP180;11328;53.928;18.522;2023-04-03T15:37:47;101551.00;;;5.90
22322;BMP180;11328;53.928;18.522;2023-04-03T15:40:15;101530.00;;;5.80
22322;BMP180;11328;53.928;18.522;2023-04-03T15:42:42;101539.00;;;5.70
22322;BMP180;11328;53.928;18.522;2023-04-03T15:45:09;101523.00;;;5.90
22322;BMP180;11328;53.928;18.522;2023-04-03T15:47:36;101528.00;;;5.90
22322;BMP180;11328;53.928;18.522;2023-04-03T15:50:04;101529.00;;;6.00
22322;BMP180;11328;53.928;18.522;2023-04-03T15:52:34;101532.00;;;6.00